ADDS METAR Data INFO
IDs: Format: Raw Decoded Include TAF

Data at: 0218 UTC 18 Jan 2018

PAKW 180053Z AUTO 05010G18KT 5SM RA BR OVC039 05/03 A2914 RMK AO2 SLP867 P0005 T00500033 TSNO
PAKW 172353Z AUTO 02008G18KT 340V050 10SM -RA FEW028 SCT055 OVC075 06/03 A2914 RMK AO2 RAE29B48 SLP868 P0000 60000 T00560028 10061 20044 55017 TSNO
PAKW 172348Z AUTO 03010G18KT 10SM -RA SCT028 SCT050 OVC075 06/03 A2914 RMK AO2 RAE29B48 P0000 TSNO
PAKW 172322Z AUTO 03010G15KT 360V060 10SM -RA BKN029 OVC070 06/02 A2915 RMK AO2 P0000 T00610022 TSNO
PAKW 172253Z AUTO VRB04KT 10SM -RA FEW031 OVC070 06/03 A2916 RMK AO2 RAB41 SLP874 P0000 T00560028 TSNO
PAKW 172153Z AUTO 04008G18KT 10SM OVC080 06/02 A2919 RMK SLP885 T00610022 TSNO VIA AUTODIAL
PAKW 172053Z AUTO 01009G20KT 340V050 10SM SCT031 OVC085 06/03 A2925 RMK AO2 PRESFR SLP906 T00560028 58052 TSNO
PAKW 171953Z AUTO 02008G17KT 290V060 10SM FEW028 SCT033 OVC085 06/03 A2932 RMK AO2 PRESFR SLP930 T00560028 TSNO
PAKW 171853Z AUTO 01007KT 340V050 10SM FEW032 OVC080 05/03 A2938 RMK AO2 SLP950 T00500028 TSNO
PAKW 171753Z AUTO 04011G20KT 10SM OVC070 04/03 A2941 RMK AO2 PRESFR SLP959 T00440028 10050 20017 56036 TSNO
PAKW 171653Z AUTO VRB03KT 10SM FEW025 OVC100 04/03 A2945 RMK AO2 PRESFR SLP974 T00440033 TSNO
PAKW 171649Z AUTO VRB06G15KT 10SM FEW025 SCT065 OVC095 04/03 A2946 RMK AO2 TSNO
PAKW 171553Z AUTO 03011KT 10SM BKN070 OVC085 04/03 A2951 RMK AO2 SLP994 T00440033 TSNO
PAKW 171453Z AUTO 03012G21KT 10SM OVC085 04/03 A2955 RMK AO2 SLP007 T00440033 58050 TSNO
PAKW 171353Z AUTO 04010G16KT 10SM FEW110 04/03 A2960 RMK AO2 SLP025 T00440028 TSNO
PAKW 171253Z AUTO 03005KT 10SM FEW036 FEW100 03/03 A2966 RMK AO2 SLP044 T00280028 TSNO
PAKW 171153Z AUTO 04005KT 10SM FEW035 04/03 A2970 RMK AO2 RAE1056B21E32 SLP058 P0000 60003 70029 T00390033 10061 20028 58016 TSNO
PAKW 171053Z AUTO 04004KT 10SM -RA SCT029 BKN036 04/03 A2973 RMK AO2 RAB44 SLP067 P0000 T00390033 TSNO
PAKW 171044Z AUTO 00000KT 10SM -RA BKN029 OVC038 04/04 A2973 RMK AO2 RAB44 P0000 T00390039 TSNO
PAKW 170953Z AUTO 00000KT 10SM BKN030 BKN035 04/04 A2974 RMK AO2 RAE02B08E48 SLP071 P0001 T00440039 TSNO
PAKW 170918Z AUTO 00000KT 10SM -RA SCT026 OVC032 05/04 A2975 RMK AO2 RAE02B08 P0001 T00500044 TSNO
PAKW 170906Z AUTO 00000KT 10SM BKN026 OVC031 05/04 A2974 RMK AO2 RAE02 P0000 T00500044 TSNO
PAKW 170853Z AUTO 13003KT 10SM -RA OVC030 05/04 A2975 RMK AO2 SLP073 P0001 60002 T00500044 401000044 51003 TSNO
PAKW 170753Z AUTO 00000KT 10SM -RA OVC030 05/04 A2974 RMK AO2 RAB00E26B42 SLP073 P0001 T00500044 TSNO
PAKW 170653Z AUTO 01003KT 10SM OVC032 06/04 A2974 RMK AO2 RAE53 SLP072 P0000 T00560044 TSNO
PAKW 170553Z AUTO 04004KT 10SM -RA OVC032 06/04 A2974 RMK AO2 RAB11 SLP070 P0000 60001 T00560044 10067 20044 53007 TSNO
PAKW 170506Z AUTO VRB05KT 10SM SCT030 BKN034 OVC042 06/04 A2973 RMK AO2 T00560044 TSNO
PAKW 170453Z AUTO 13003KT 10SM BKN029 OVC036 06/04 A2973 RMK AO2 SLP067 T00610044 TSNO
PAKW 170449Z AUTO 00000KT 10SM BKN029 OVC036 06/04 A2972 RMK AO2 TSNO
PAKW 170420Z AUTO 00000KT 10SM FEW021 BKN030 OVC036 06/05 A2972 RMK AO2 T00560050 TSNO
PAKW 170353Z AUTO 32003KT 10SM FEW021 OVC027 06/05 A2972 RMK AO2 RAE00 SLP063 P0001 T00560050 TSNO
PAKW 170341Z AUTO 00000KT 10SM BKN025 OVC032 06/05 A2971 RMK AO2 RAE00 P0001 T00560050 TSNO
PAKW 170253Z AUTO 00000KT 10SM -RA OVC037 06/05 A2971 RMK AO2 RAB0159 SLP062 P0000 60000 T00560050 51007 TSNO
PAKW 170153Z AUTO 00000KT 10SM SCT050 SCT070 BKN085 06/04 A2970 RMK AO2 SLP060 T00560044 TSNO
PAKW 170053Z AUTO 00000KT 10SM BKN034 OVC041 07/06 A2971 RMK AO2 SLP061 T00670056 TSNO
PAKW 170012Z AUTO 07005KT 10SM FEW018 SCT028 BKN040 06/06 A2970 RMK AO2 T00610056 TSNO
PAKW 162353Z AUTO VRB03KT 10SM FEW017 OVC027 07/06 A2969 RMK AO2 RAE43 SLP055 P0001 60013 T00670061 10083 20067 53002 TSNO
PAKW 162317Z AUTO VRB03KT 10SM -RA FEW017 BKN024 OVC036 07/07 A2970 RMK AO2 P0000 T00720067 TSNO
PAKW 162253Z AUTO 14005KT 7SM -RA SCT025 BKN030 OVC035 08/06 A2969 RMK AO2 SLP054 P0002 T00780061 TSNO
PAKW 162153Z AUTO 00000KT 6SM -RA BR BKN026 OVC034 07/07 A2969 RMK AO2 SLP054 P0002 T00720067 TSNO
PAKW 162053Z AUTO VRB05KT 6SM -RA BR FEW011 OVC026 07/07 A2969 RMK AO2 SLP053 P0003 60008 T00720072 51012 TSNO
PAKW 162035Z AUTO 00000KT 5SM -RA BR BKN026 OVC035 07/07 A2968 RMK AO2 P0002 T00720067 TSNO
PAKW 161953Z AUTO VRB05KT 6SM -RA BR BKN030 OVC038 07/06 A2968 RMK AO2 SLP052 P0005 T00720061 TSNO
PAKW 161853Z AUTO 14009G15KT 10SM -RA BKN041 OVC050 08/04 A2967 RMK AO2 RAB48 SLP047 P0000 T00830044 TSNO
PAKW 161753Z AUTO 14005G15KT 10SM BKN042 BKN050 08/05 A2965 RMK AO2 RAB12E21 SLP041 P0000 60012 T00780050 10089 20072 53021 TSNO
PAKW 161653Z AUTO 14007KT 10SM OVC042 08/05 A2963 RMK AO2 RAB07E35 SLP033 P0000 T00780050 TSNO
PAKW 161553Z AUTO 15006KT 10SM SCT035 BKN049 07/06 A2961 RMK AO2 RAB1455E33 SLP026 P0000 T00720056 TSNO
PAKW 161453Z AUTO 00000KT 10SM BKN032 OVC043 08/06 A2959 RMK AO2 RAB26E36 SLP019 P0000 60012 T00780061 51032 TSNO